createdAt,value
2017-07-22T14:31:51.726Z,41.14
2017-07-22T14:34:20.750Z,43.67
2017-07-22T14:36:50.295Z,45.39
2017-07-22T14:39:20.435Z,45.24
2017-07-22T14:41:49.900Z,44.09
2017-07-22T14:44:19.419Z,44.48
2017-07-22T14:46:48.814Z,44.74
2017-07-22T14:49:18.290Z,44.21
2017-07-22T14:51:47.583Z,44.22
2017-07-22T14:54:16.702Z,44.21
2017-07-22T14:56:46.236Z,43.50
2017-07-22T14:59:15.472Z,44.05
2017-07-22T15:01:45.008Z,43.67
2017-07-22T15:04:14.159Z,44.54
2017-07-22T15:06:43.826Z,44.11
2017-07-22T15:09:13.297Z,45.32
2017-07-22T15:11:42.670Z,45.58
2017-07-22T15:14:12.811Z,45.67
2017-07-22T15:16:41.914Z,44.01
2017-07-22T15:19:11.065Z,45.09
2017-07-22T15:21:40.019Z,45.35
2017-07-22T15:24:09.024Z,44.62
2017-07-22T15:26:38.511Z,43.92
2017-07-22T15:29:07.843Z,44.05
2017-07-22T15:31:37.058Z,43.32
2017-07-22T15:34:07.124Z,44.16
2017-07-22T15:36:36.258Z,44.01
2017-07-22T15:39:05.850Z,45.49
2017-07-22T15:41:35.162Z,46.47
2017-07-22T15:44:04.928Z,47.49
2017-07-22T15:46:34.927Z,47.12
2017-07-22T15:49:03.284Z,44.37
2017-07-22T15:51:31.416Z,44.79
2017-07-22T15:54:00.748Z,45.18
2017-07-22T15:56:30.024Z,44.02
2017-07-22T15:58:59.174Z,43.72
2017-07-22T16:01:28.706Z,44.20
2017-07-22T16:03:58.029Z,44.70
2017-07-22T16:06:27.247Z,46.17
2017-07-22T16:08:56.368Z,45.31
2017-07-22T16:11:25.570Z,45.34
2017-07-22T16:13:54.678Z,45.91
2017-07-22T16:16:23.723Z,44.59
2017-07-22T16:18:54.013Z,46.53
2017-07-22T16:21:24.044Z,46.32
2017-07-22T16:23:53.742Z,45.81
2017-07-22T16:26:23.969Z,45.58
2017-07-22T16:28:53.685Z,45.76
2017-07-22T16:31:24.596Z,45.69
2017-07-22T16:33:54.370Z,45.85
2017-07-22T16:36:23.468Z,45.76
2017-07-22T16:38:52.636Z,45.39
2017-07-22T16:41:22.135Z,45.82
2017-07-22T16:43:50.954Z,46.19
2017-07-22T16:46:20.400Z,47.16
2017-07-22T16:48:49.997Z,46.90
2017-07-22T16:51:19.260Z,47.11
2017-07-22T16:53:48.783Z,46.79
2017-07-22T16:56:17.889Z,47.74
2017-07-22T16:58:47.641Z,46.95
2017-07-22T17:01:16.941Z,46.86
2017-07-22T17:03:45.652Z,46.30
2017-07-22T17:06:14.887Z,47.07
2017-07-22T17:08:44.630Z,48.41
2017-07-22T17:11:14.034Z,48.53
2017-07-22T17:13:43.502Z,49.22
2017-07-22T17:16:13.024Z,50.22
2017-07-22T17:18:43.027Z,50.91
2017-07-22T17:21:12.649Z,51.99
2017-07-22T17:23:41.751Z,52.90
2017-07-22T17:26:10.747Z,51.08
2017-07-22T17:28:39.931Z,50.94
2017-07-22T17:31:09.514Z,52.18
2017-07-22T17:33:38.849Z,52.49
2017-07-22T17:36:08.255Z,53.47
2017-07-22T17:38:37.677Z,53.31
2017-07-22T17:41:06.992Z,52.98
2017-07-22T17:43:36.036Z,51.87
2017-07-22T17:46:05.108Z,51.83
2017-07-22T17:48:34.398Z,51.06
2017-07-22T17:51:04.485Z,52.32
2017-07-22T17:53:33.689Z,52.29
2017-07-22T17:56:02.690Z,52.02
2017-07-22T17:58:33.015Z,52.51
2017-07-22T18:01:03.092Z,52.45
2017-07-22T18:03:31.611Z,52.36
2017-07-22T18:06:01.201Z,52.24
2017-07-22T18:08:30.189Z,51.79
2017-07-22T18:10:59.896Z,51.26
2017-07-22T18:13:29.280Z,51.44
2017-07-22T18:15:58.560Z,51.76
2017-07-22T18:18:28.101Z,52.06
2017-07-22T18:20:57.348Z,52.43
2017-07-22T18:23:26.398Z,52.59
2017-07-22T18:25:55.731Z,52.96
2017-07-22T18:28:25.046Z,53.25
2017-07-22T18:30:54.290Z,54.30
2017-07-22T18:33:24.838Z,54.28
2017-07-22T18:35:53.928Z,53.93
2017-07-22T18:38:23.175Z,54.15
2017-07-22T18:40:53.340Z,54.36
2017-07-22T18:43:23.231Z,54.97
2017-07-22T18:45:53.020Z,55.68
2017-07-22T18:48:22.392Z,55.86
2017-07-22T18:50:53.145Z,55.75
2017-07-22T18:53:22.031Z,56.00
2017-07-22T18:55:50.783Z,55.60
2017-07-22T18:58:20.760Z,55.03
2017-07-22T19:00:50.127Z,56.07
2017-07-22T19:03:19.513Z,55.64
2017-07-22T19:05:49.076Z,55.89
2017-07-22T19:08:18.323Z,56.12
2017-07-22T19:10:47.832Z,56.33
2017-07-22T19:13:17.029Z,56.52
2017-07-22T19:15:46.106Z,56.76
2017-07-22T19:18:15.436Z,56.98
2017-07-22T19:20:44.582Z,57.56
2017-07-22T19:23:14.127Z,57.78
2017-07-22T19:25:43.259Z,57.71
2017-07-22T19:28:12.709Z,58.13
2017-07-22T19:30:41.887Z,58.25
2017-07-22T19:33:11.443Z,58.19
2017-07-22T19:35:40.794Z,58.62
2017-07-22T19:38:10.562Z,60.05
2017-07-22T19:40:39.598Z,63.16
2017-07-22T19:43:09.318Z,64.81
2017-07-22T19:45:38.447Z,64.64
2017-07-22T19:48:08.172Z,64.83
2017-07-22T19:50:37.703Z,66.25
2017-07-22T19:53:07.205Z,65.63
2017-07-22T19:55:36.591Z,64.81
2017-07-22T19:58:06.163Z,64.14
2017-07-22T20:00:33.830Z,64.68
2017-07-22T20:03:01.255Z,64.06
2017-07-22T20:05:28.656Z,64.26
2017-07-22T20:07:56.096Z,64.37
2017-07-22T20:10:23.561Z,63.54
2017-07-22T20:12:51.007Z,63.71
2017-07-22T20:15:18.454Z,63.74
2017-07-22T20:17:46.002Z,63.30
2017-07-22T20:20:13.441Z,63.03
2017-07-22T20:22:40.878Z,62.64
2017-07-22T20:25:08.292Z,63.00
2017-07-22T20:27:35.732Z,63.11
2017-07-22T20:30:03.157Z,63.06
2017-07-22T20:32:30.625Z,62.71
2017-07-22T20:34:58.046Z,62.63
2017-07-22T20:37:25.464Z,62.54
2017-07-22T20:39:52.935Z,63.25
2017-07-22T20:42:20.447Z,61.72
2017-07-22T20:44:47.844Z,61.64
2017-07-22T20:47:15.318Z,61.53
2017-07-22T20:49:42.764Z,59.96
2017-07-22T20:52:10.312Z,59.36
2017-07-22T20:54:37.818Z,58.95
2017-07-22T20:57:05.236Z,57.75
2017-07-22T20:59:32.957Z,57.59
2017-07-22T21:02:00.379Z,57.55
2017-07-22T21:04:27.786Z,56.91
2017-07-22T21:06:55.195Z,57.33
2017-07-22T21:09:22.638Z,56.98
2017-07-22T21:11:50.076Z,57.33
2017-07-22T21:14:17.502Z,55.94
2017-07-22T21:16:44.931Z,55.35
2017-07-22T21:19:12.352Z,53.84
2017-07-22T21:21:39.844Z,53.90
2017-07-22T21:24:07.269Z,53.72
2017-07-22T21:26:34.872Z,53.03
2017-07-22T21:29:02.332Z,52.70
2017-07-22T21:31:30.158Z,52.57
2017-07-22T21:33:57.577Z,52.11
2017-07-22T21:36:25.024Z,51.85
2017-07-22T21:38:52.522Z,51.39
2017-07-22T21:41:19.930Z,50.73
2017-07-22T21:43:47.467Z,50.16
2017-07-22T21:46:14.919Z,49.21
2017-07-22T21:48:42.334Z,49.41
2017-07-22T21:51:09.751Z,49.49
2017-07-22T21:53:37.168Z,49.28
2017-07-22T21:56:04.643Z,49.22
2017-07-22T21:58:32.074Z,49.63
2017-07-22T22:00:59.476Z,49.53
2017-07-22T22:03:26.935Z,49.32
2017-07-22T22:05:54.344Z,49.84
2017-07-22T22:08:21.761Z,50.40
2017-07-22T22:10:49.273Z,51.47
2017-07-22T22:13:16.691Z,52.11
2017-07-22T22:15:44.107Z,52.84
2017-07-22T22:18:11.660Z,53.44
2017-07-22T22:20:39.079Z,53.66
2017-07-22T22:23:06.505Z,53.74
2017-07-22T22:25:33.939Z,54.02
2017-07-22T22:28:01.895Z,54.77
2017-07-22T22:30:29.296Z,54.93
2017-07-22T22:32:56.712Z,54.81
2017-07-22T22:35:24.156Z,55.06
2017-07-22T22:37:51.606Z,55.60
2017-07-22T22:40:19.036Z,56.40
2017-07-22T22:42:46.468Z,57.42
2017-07-22T22:45:13.967Z,57.84
2017-07-22T22:47:41.424Z,58.03
2017-07-22T22:50:09.458Z,59.11
2017-07-22T22:52:36.859Z,59.29
2017-07-22T22:55:04.311Z,60.53
2017-07-22T22:57:31.738Z,62.05
2017-07-22T22:59:59.182Z,62.02
2017-07-22T23:02:26.586Z,63.32
2017-07-22T23:04:54.003Z,64.79
2017-07-22T23:07:21.431Z,63.71
2017-07-22T23:09:48.856Z,63.99
2017-07-22T23:12:16.299Z,65.07
2017-07-22T23:14:43.770Z,64.71
2017-07-22T23:17:11.239Z,65.20
2017-07-22T23:19:38.659Z,65.61
2017-07-22T23:22:06.244Z,66.57
2017-07-22T23:24:33.688Z,66.43
2017-07-22T23:27:01.111Z,66.48
2017-07-22T23:29:28.554Z,66.01
2017-07-22T23:31:55.963Z,65.68
2017-07-22T23:34:23.468Z,65.81
2017-07-22T23:36:50.902Z,65.87
2017-07-22T23:39:18.343Z,65.48
2017-07-22T23:41:45.778Z,64.71
2017-07-22T23:44:13.192Z,64.32
2017-07-22T23:46:40.617Z,64.42
2017-07-22T23:49:08.029Z,63.76
2017-07-22T23:51:35.438Z,63.22
2017-07-22T23:54:02.882Z,62.63
2017-07-22T23:56:30.284Z,62.58
2017-07-22T23:58:57.754Z,62.71
